Hovedside
METAR-TAF:

METAR-TAF

Lufthavner :

Norne Fpso, Norge

Oljeplattform

breddegrad: 66-01-48N, lengdegrad: 008-04-48E, høyde over havet: 10 m

Gjeldene værobservasjon

Denne rapporten ble laget for 22 minutter siden, klokken 14:20 UTC
Vind 37 kt fra Øst-sørøst
Temperatur 2°C
Luftfuktighet 69%
Trykk 997 hPa
Sikt 10 km eller mer
Få skyer i en høyde av 1000 ft
Brutte skyer i en høyde av 2500 ft
lette snøbyger, regn

METAR: ENNE 221420Z 11037KT 9999 -SHSNRA FEW010 BKN025 02/M03 Q0997 W///S6

Tid: 15:42 (14:42 UTC)

Varsel

Denne rapporten ble laget for 42 minutter siden, klokken 14:00 UTC
Varsel gyldig fra 22. klokken 15 UTC til 22. klokken 18 UTC
Vind 40 kt fra Øst-sørøst
Sikt 10 km eller mer
Brutte skyer i en høyde av 3000 ft
Midlertidig
fra 22. klokken 15 UTC til 22. klokken 18 UTC
regnbyger

TAF: ENNE 221400Z 2215/2218 11040KT 9999 BKN030 TEMPO 2215/2218 SHRA

Værobservasjoner og værvarsel for over 4000 flyplasser (METAR- og TAF-rapporter).

Tilgjengelige stasjoner er representert av de røde og gule prikkene på kartet.

Hold musepekeren over prikken for å se navnet på stasjonen.

Klikk så for å se værobservasjoner og -varsler.

For å forandre kartet kan du klikke på den grønne knappen med svart kryss for å zoome inn, på den grønne knappen med strek for å zoome ut, eller på de grønne pilene for å se tilstøtende kart.


METAR-TAF: